createdAt,value
2022-10-25T00:00:54.062Z,100724.41
2022-10-25T00:03:21.892Z,100720.00
2022-10-25T00:05:50.053Z,100727.75
2022-10-25T00:08:17.910Z,100718.03
2022-10-25T00:10:45.757Z,100714.47
2022-10-25T00:13:13.932Z,100717.81
2022-10-25T00:15:41.800Z,100709.88
2022-10-25T00:18:11.103Z,100712.38
2022-10-25T00:20:39.543Z,100708.81
2022-10-25T00:23:07.385Z,100706.09
2022-10-25T00:25:35.238Z,100701.69
2022-10-25T00:28:03.112Z,100698.13
2022-10-25T00:30:30.981Z,100696.38
2022-10-25T00:32:58.911Z,100692.69
2022-10-25T00:35:28.329Z,100691.72
2022-10-25T00:37:56.175Z,100689.97
2022-10-25T00:40:24.029Z,100685.59
2022-10-25T00:42:52.001Z,100685.47
2022-10-25T00:45:26.946Z,100675.81
2022-10-25T00:47:59.355Z,100675.63
2022-10-25T00:50:37.150Z,100667.78
2022-10-25T00:53:12.699Z,100666.00
2022-10-25T00:55:45.514Z,100665.16
2022-10-25T00:58:17.482Z,100652.91
2022-10-25T01:00:47.001Z,100657.09
2022-10-25T01:03:16.002Z,100649.25
2022-10-25T01:05:46.050Z,100647.47
2022-10-25T01:08:14.971Z,100639.63
2022-10-25T01:10:42.942Z,100644.75
2022-10-25T01:13:10.970Z,100640.38
2022-10-25T01:15:47.667Z,100629.06
2022-10-25T01:18:19.680Z,100628.09
2022-10-25T01:21:38.955Z,100624.56
2022-10-25T01:24:35.770Z,100619.31
2022-10-25T01:27:16.792Z,100612.19
2022-10-25T01:30:10.002Z,100610.41
2022-10-25T01:32:49.558Z,100612.91
2022-10-25T01:35:28.687Z,100600.69
2022-10-25T01:38:29.151Z,100600.56
2022-10-25T01:41:08.401Z,100597.97
2022-10-25T01:43:46.496Z,100596.28
2022-10-25T01:46:23.632Z,100592.72
2022-10-25T01:48:59.324Z,100582.25
2022-10-25T01:51:28.536Z,100588.31
2022-10-25T01:53:56.403Z,100586.53
2022-10-25T01:56:29.061Z,100577.72
2022-10-25T01:59:24.855Z,100576.72
2022-10-25T02:02:05.271Z,100575.03
2022-10-25T02:04:44.966Z,100570.66
2022-10-25T02:07:19.535Z,100558.41
2022-10-25T02:09:57.042Z,100563.66
2022-10-25T02:12:31.746Z,100559.22
2022-10-25T02:15:09.899Z,100554.72
2022-10-25T02:17:42.032Z,100548.66
2022-10-25T02:20:14.755Z,100545.13
2022-10-25T02:22:42.900Z,100547.63
2022-10-25T02:25:13.765Z,100544.03
2022-10-25T02:27:42.511Z,100544.03
2022-10-25T02:30:13.553Z,100550.94
2022-10-25T02:32:43.740Z,100547.38
2022-10-25T02:35:16.197Z,100543.94
2022-10-25T02:37:44.618Z,100539.44
2022-10-25T02:40:13.542Z,100534.19
2022-10-25T02:42:41.413Z,100529.78
2022-10-25T02:45:10.548Z,100533.13
2022-10-25T02:47:38.535Z,100518.28
2022-10-25T02:50:07.416Z,100529.31
2022-10-25T02:52:36.723Z,100518.03
2022-10-25T02:55:04.905Z,100515.44
2022-10-25T02:57:34.710Z,100514.34
2022-10-25T03:00:03.043Z,100510.88
2022-10-25T03:02:30.960Z,100509.97
2022-10-25T03:04:58.806Z,100511.63
2022-10-25T03:07:26.668Z,100507.19
2022-10-25T03:09:55.898Z,100509.81
2022-10-25T03:12:23.727Z,100503.66
2022-10-25T03:14:51.568Z,100508.03
2022-10-25T03:17:19.411Z,100502.69
2022-10-25T03:19:47.343Z,100500.09
2022-10-25T03:22:15.183Z,100504.34
2022-10-25T03:24:43.160Z,100497.34
2022-10-25T03:27:12.793Z,100499.97
2022-10-25T03:29:41.010Z,100495.56
2022-10-25T03:32:08.882Z,100497.34
2022-10-25T03:34:36.736Z,100487.59
2022-10-25T03:37:04.593Z,100487.72
2022-10-25T03:39:32.480Z,100485.81
2022-10-25T03:42:00.334Z,100477.94
2022-10-25T03:44:29.637Z,100474.41
2022-10-25T03:46:57.574Z,100474.41
2022-10-25T03:49:26.212Z,100477.84
2022-10-25T03:51:58.893Z,100474.28
2022-10-25T03:54:29.569Z,100469.88
2022-10-25T03:57:01.156Z,100463.81
2022-10-25T03:59:33.614Z,100464.63
2022-10-25T04:02:02.093Z,100465.47
2022-10-25T04:04:32.999Z,100457.63
2022-10-25T04:07:04.569Z,100457.75
2022-10-25T04:09:32.477Z,100456.78
2022-10-25T04:12:00.624Z,100462.03
2022-10-25T04:14:28.666Z,100454.03
2022-10-25T04:16:57.961Z,100463.72
2022-10-25T04:19:25.959Z,100455.75
2022-10-25T04:21:53.902Z,100460.00
2022-10-25T04:24:22.733Z,100450.38
2022-10-25T04:26:50.649Z,100464.28
2022-10-25T04:29:18.576Z,100461.66
2022-10-25T04:31:46.415Z,100464.28
2022-10-25T04:34:15.770Z,100460.00
2022-10-25T04:36:43.891Z,100459.06
2022-10-25T04:39:12.028Z,100453.81
2022-10-25T04:41:40.364Z,100449.53
2022-10-25T04:44:08.208Z,100456.31
2022-10-25T04:46:36.130Z,100456.19
2022-10-25T04:49:04.032Z,100450.03
2022-10-25T04:51:34.371Z,100448.22
2022-10-25T04:54:02.248Z,100450.03
2022-10-25T04:56:30.467Z,100451.69
2022-10-25T04:58:59.786Z,100460.50
2022-10-25T05:01:27.846Z,100450.97
2022-10-25T05:03:55.769Z,100446.47
2022-10-25T05:06:26.559Z,100448.09
2022-10-25T05:08:56.570Z,100443.47
2022-10-25T05:11:26.143Z,100445.25
2022-10-25T05:13:54.170Z,100453.97
2022-10-25T05:16:24.958Z,100446.94
2022-10-25T05:18:54.502Z,100440.88
2022-10-25T05:21:23.162Z,100443.47
2022-10-25T05:23:51.013Z,100449.56
2022-10-25T05:26:22.091Z,100450.38
2022-10-25T05:28:52.776Z,100448.47
2022-10-25T05:31:22.833Z,100453.72
2022-10-25T05:33:52.322Z,100447.63
2022-10-25T05:36:20.663Z,100448.38
2022-10-25T05:38:48.610Z,100450.03
2022-10-25T05:41:18.459Z,100446.47
2022-10-25T05:43:48.386Z,100451.72
2022-10-25T05:46:17.769Z,100440.41
2022-10-25T05:48:48.938Z,100444.56
2022-10-25T05:51:33.408Z,100441.81
2022-10-25T05:54:04.476Z,100441.56
2022-10-25T05:56:34.311Z,100446.94
2022-10-25T05:59:07.649Z,100440.88
2022-10-25T06:01:36.725Z,100445.16
2022-10-25T06:04:04.933Z,100444.06
2022-10-25T06:06:33.252Z,100445.75
2022-10-25T06:09:02.272Z,100451.00
2022-10-25T06:11:31.039Z,100448.38
2022-10-25T06:13:59.265Z,100449.06
2022-10-25T06:16:28.711Z,100451.56
2022-10-25T06:18:56.755Z,100457.53
2022-10-25T06:21:26.415Z,100448.72
2022-10-25T06:23:55.266Z,100453.84
2022-10-25T06:26:24.816Z,100454.44
2022-10-25T06:28:54.552Z,100454.44
2022-10-25T06:31:25.763Z,100460.38
2022-10-25T06:33:55.028Z,100462.75
2022-10-25T06:36:27.368Z,100450.50
2022-10-25T06:38:55.675Z,100455.63
2022-10-25T06:41:28.526Z,100458.84
2022-10-25T06:43:56.831Z,100460.50
2022-10-25T06:46:26.393Z,100459.53
2022-10-25T06:48:57.832Z,100452.53
2022-10-25T06:51:28.641Z,100454.06
2022-10-25T06:53:57.570Z,100455.50
2022-10-25T06:56:26.375Z,100453.44
2022-10-25T06:58:54.360Z,100451.56
2022-10-25T07:01:23.789Z,100452.97
2022-10-25T07:03:53.670Z,100452.84
2022-10-25T07:06:27.426Z,100446.44
2022-10-25T07:09:00.269Z,100449.75
2022-10-25T07:11:30.032Z,100456.53
2022-10-25T07:13:59.653Z,100448.81
2022-10-25T07:16:28.989Z,100455.59
2022-10-25T07:18:59.856Z,100452.72
2022-10-25T07:21:30.411Z,100452.91
2022-10-25T07:23:59.051Z,100451.13
2022-10-25T07:26:28.706Z,100456.72
2022-10-25T07:28:58.056Z,100450.75
2022-10-25T07:31:28.543Z,100449.56
2022-10-25T07:33:58.210Z,100453.63
2022-10-25T07:36:26.486Z,100455.28
2022-10-25T07:38:57.166Z,100458.63
2022-10-25T07:41:25.560Z,100454.06
2022-10-25T07:43:53.597Z,100445.13
2022-10-25T07:46:21.437Z,100442.25
2022-10-25T07:48:49.319Z,100443.78
2022-10-25T07:51:18.715Z,100442.69
2022-10-25T07:53:46.596Z,100439.94
2022-10-25T07:56:22.182Z,100443.28
2022-10-25T07:58:52.222Z,100445.81
2022-10-25T08:01:22.649Z,100446.41
2022-10-25T08:03:50.335Z,100448.06
2022-10-25T08:06:18.614Z,100443.91
2022-10-25T08:08:46.638Z,100449.97
2022-10-25T08:11:16.364Z,100450.56
2022-10-25T08:13:44.291Z,100450.44
2022-10-25T08:16:12.143Z,100453.50
2022-10-25T08:18:39.977Z,100455.06
2022-10-25T08:21:07.852Z,100459.34
2022-10-25T08:23:35.762Z,100461.00
2022-10-25T08:26:04.196Z,100454.69
2022-10-25T08:28:33.464Z,100452.88
2022-10-25T08:31:02.158Z,100460.63
2022-10-25T08:33:30.635Z,100459.56
2022-10-25T08:36:01.590Z,100459.31
2022-10-25T08:38:29.576Z,100458.31
2022-10-25T08:41:04.591Z,100456.41
2022-10-25T08:43:54.687Z,100462.22
2022-10-25T08:46:27.668Z,100463.06
2022-10-25T08:49:14.674Z,100456.72
2022-10-25T08:51:46.909Z,100456.59
2022-10-25T08:54:28.483Z,100452.06
2022-10-25T08:57:21.958Z,100459.81
2022-10-25T08:59:53.564Z,100459.69
2022-10-25T09:02:29.826Z,100467.31
2022-10-25T09:04:57.959Z,100461.94
2022-10-25T09:07:46.436Z,100466.22
2022-10-25T09:10:25.156Z,100460.81
2022-10-25T09:13:01.027Z,100460.69
2022-10-25T09:15:43.707Z,100456.03
2022-10-25T09:18:17.819Z,100451.72
2022-10-25T09:20:50.859Z,100455.91
2022-10-25T09:23:29.842Z,100460.19
2022-10-25T09:26:05.167Z,100455.78
2022-10-25T09:28:50.823Z,100461.72
2022-10-25T09:31:24.245Z,100459.09
2022-10-25T09:34:01.484Z,100453.84
2022-10-25T09:36:38.303Z,100452.91
2022-10-25T09:39:15.800Z,100449.31
2022-10-25T09:41:46.899Z,100449.31
2022-10-25T09:44:20.983Z,100452.50
2022-10-25T09:46:55.753Z,100453.19
2022-10-25T09:49:34.153Z,100454.03
2022-10-25T09:52:14.108Z,100452.69
2022-10-25T09:54:47.412Z,100447.44
2022-10-25T09:57:15.528Z,100458.50
2022-10-25T09:59:44.197Z,100455.75
2022-10-25T10:02:20.716Z,100457.16
2022-10-25T10:04:48.910Z,100458.00
2022-10-25T10:07:20.903Z,100451.78
2022-10-25T10:09:50.885Z,100450.56
2022-10-25T10:12:25.101Z,100446.00
2022-10-25T10:14:59.899Z,100448.50
2022-10-25T10:17:31.405Z,100450.84
2022-10-25T10:20:15.184Z,100449.75
2022-10-25T10:25:33.966Z,100448.94
2022-10-25T10:28:01.962Z,100450.84
2022-10-25T10:30:31.759Z,100447.69
2022-10-25T10:33:02.855Z,100451.00
2022-10-25T10:35:33.363Z,100453.63
2022-10-25T10:38:14.817Z,100452.22
2022-10-25T10:40:45.645Z,100446.84
2022-10-25T10:43:30.749Z,100453.75
2022-10-25T10:46:03.910Z,100454.59
2022-10-25T10:48:43.301Z,100453.63
2022-10-25T10:51:39.017Z,100450.72
2022-10-25T10:54:14.738Z,100446.31
2022-10-25T10:56:42.590Z,100452.25
2022-10-25T10:59:27.570Z,100446.72
2022-10-25T11:01:56.557Z,100448.16
2022-10-25T11:04:26.370Z,100454.09
2022-10-25T11:06:54.318Z,100448.56
2022-10-25T11:09:25.543Z,100454.13
2022-10-25T11:12:07.730Z,100439.09
2022-10-25T11:14:38.386Z,100444.75
2022-10-25T11:17:10.464Z,100443.41
2022-10-25T11:19:55.932Z,100442.16
2022-10-25T11:22:44.289Z,100433.50
2022-10-25T11:25:23.531Z,100436.41
2022-10-25T11:28:02.819Z,100436.97
2022-10-25T11:30:39.247Z,100430.59
2022-10-25T11:33:38.627Z,100436.16
2022-10-25T11:36:22.804Z,100435.75
2022-10-25T11:39:02.282Z,100435.63
2022-10-25T11:41:44.743Z,100429.25
2022-10-25T11:44:41.745Z,100429.13
2022-10-25T11:47:25.536Z,100429.28
2022-10-25T11:50:04.649Z,100422.38
2022-10-25T11:52:57.367Z,100425.53
2022-10-25T11:55:36.088Z,100429.13
2022-10-25T11:58:19.344Z,100426.50
2022-10-25T12:00:58.474Z,100427.34
2022-10-25T12:03:43.815Z,100423.19
2022-10-25T12:06:19.075Z,100422.38
2022-10-25T12:08:59.995Z,100425.25
2022-10-25T12:11:32.162Z,100432.44
2022-10-25T12:14:02.247Z,100437.72
2022-10-25T12:16:31.673Z,100429.81
2022-10-25T12:19:09.119Z,100432.59
2022-10-25T12:21:43.886Z,100431.75
2022-10-25T12:24:21.016Z,100431.88
2022-10-25T12:26:51.369Z,100432.03
2022-10-25T12:29:22.170Z,100428.72
2022-10-25T12:31:57.979Z,100427.88
2022-10-25T12:34:34.006Z,100432.28
2022-10-25T12:37:06.154Z,100428.72
2022-10-25T12:39:40.830Z,100425.81
2022-10-25T12:42:17.039Z,100428.59
2022-10-25T12:45:09.585Z,100436.59
2022-10-25T12:47:52.450Z,100433.13
2022-10-25T12:50:57.863Z,100433.41
2022-10-25T12:53:57.542Z,100425.66
2022-10-25T12:56:39.892Z,100432.03
2022-10-25T12:59:13.791Z,100433.81
2022-10-25T13:01:59.954Z,100426.75
2022-10-25T13:04:48.823Z,100424.00
2022-10-25T13:07:18.475Z,100426.75
2022-10-25T13:09:46.774Z,100422.59
2022-10-25T13:12:30.590Z,100430.47
2022-10-25T13:15:01.043Z,100429.81
2022-10-25T13:18:02.840Z,100432.56
2022-10-25T13:20:48.370Z,100423.00
2022-10-25T13:24:02.981Z,100429.94
2022-10-25T13:26:50.407Z,100426.47
2022-10-25T13:29:48.853Z,100420.78
2022-10-25T13:32:19.815Z,100428.66
2022-10-25T13:34:48.212Z,100424.38
2022-10-25T13:37:40.348Z,100429.63
2022-10-25T13:40:21.375Z,100429.75
2022-10-25T13:42:58.323Z,100414.84
2022-10-25T13:45:35.357Z,100419.25
2022-10-25T13:48:28.260Z,100424.25
2022-10-25T13:50:58.164Z,100423.41
2022-10-25T13:53:27.804Z,100420.91
2022-10-25T13:56:01.214Z,100415.78
2022-10-25T13:58:48.671Z,100420.38
2022-10-25T14:01:56.902Z,100424.78
2022-10-25T14:04:41.681Z,100418.72
2022-10-25T14:07:47.862Z,100418.84
2022-10-25T14:10:24.301Z,100422.56
2022-10-25T14:12:54.639Z,100419.22
2022-10-25T14:15:36.484Z,100416.72
2022-10-25T14:18:12.546Z,100423.91
2022-10-25T14:20:45.490Z,100423.91
2022-10-25T14:23:17.227Z,100423.06
2022-10-25T14:25:52.411Z,100421.41
2022-10-25T14:28:24.391Z,100419.75
2022-10-25T14:30:55.466Z,100420.69
2022-10-25T14:33:26.898Z,100420.84
2022-10-25T14:35:58.605Z,100420.16
2022-10-25T14:38:28.472Z,100415.03
2022-10-25T14:40:57.841Z,100412.41
2022-10-25T14:43:31.779Z,100419.44
2022-10-25T14:46:12.167Z,100414.19
2022-10-25T14:48:40.303Z,100419.72
2022-10-25T14:51:14.827Z,100419.72
2022-10-25T14:53:52.304Z,100413.63
2022-10-25T14:56:27.436Z,100412.81
2022-10-25T14:58:56.439Z,100418.06
2022-10-25T15:01:24.841Z,100419.97
2022-10-25T15:03:55.827Z,100417.47
2022-10-25T15:06:28.459Z,100416.66
2022-10-25T15:09:16.201Z,100407.09
2022-10-25T15:12:04.810Z,100419.53
2022-10-25T15:14:32.720Z,100405.47
2022-10-25T15:17:04.324Z,100414.28
2022-10-25T15:19:32.290Z,100417.16
2022-10-25T15:22:10.806Z,100416.50
2022-10-25T15:24:49.027Z,100412.91
2022-10-25T15:27:28.139Z,100415.66
2022-10-25T15:29:56.216Z,100413.16
2022-10-25T15:32:26.463Z,100413.41
2022-10-25T15:34:56.626Z,100413.56
2022-10-25T15:37:27.967Z,100401.66
2022-10-25T15:39:57.593Z,100405.25
2022-10-25T15:42:27.707Z,100408.69
2022-10-25T15:44:55.643Z,100407.88
2022-10-25T15:47:32.992Z,100411.47
2022-10-25T15:50:03.044Z,100413.28
2022-10-25T15:52:32.420Z,100411.59
2022-10-25T15:55:00.321Z,100399.44
2022-10-25T15:57:28.452Z,100403.72
2022-10-25T15:59:56.337Z,100417.81
2022-10-25T16:02:27.176Z,100415.19
2022-10-25T16:04:55.388Z,100405.66
2022-10-25T16:07:23.524Z,100407.19
2022-10-25T16:09:55.043Z,100403.03
2022-10-25T16:12:33.732Z,100403.97
2022-10-25T16:15:06.056Z,100406.59
2022-10-25T16:17:33.980Z,100408.41
2022-10-25T16:20:01.884Z,100403.03
2022-10-25T16:22:29.801Z,100400.53
2022-10-25T16:24:59.064Z,100405.78
2022-10-25T16:27:30.019Z,100406.59
2022-10-25T16:29:58.041Z,100398.84
2022-10-25T16:32:26.023Z,100397.06
2022-10-25T16:34:53.929Z,100404.94
2022-10-25T16:37:21.923Z,100406.72
2022-10-25T16:39:49.853Z,100400.81
2022-10-25T16:42:35.629Z,100404.22
2022-10-25T16:45:07.194Z,100407.72
2022-10-25T16:47:35.201Z,100409.50
2022-10-25T16:50:03.207Z,100401.75
2022-10-25T16:52:33.841Z,100405.22
2022-10-25T16:55:05.810Z,100403.69
2022-10-25T16:57:35.117Z,100406.19
2022-10-25T17:00:03.818Z,100406.19
2022-10-25T17:02:34.156Z,100408.69
2022-10-25T17:05:02.029Z,100401.06
2022-10-25T17:07:30.187Z,100403.69
2022-10-25T17:09:58.032Z,100399.38
2022-10-25T17:12:26.195Z,100406.44
2022-10-25T17:14:55.492Z,100407.25
2022-10-25T17:19:51.273Z,100402.00
2022-10-25T17:22:20.591Z,100408.22
2022-10-25T17:24:48.792Z,100405.59
2022-10-25T17:27:16.675Z,100407.38
2022-10-25T17:29:44.597Z,100402.97
2022-10-25T17:32:13.878Z,100409.88
2022-10-25T17:34:41.715Z,100407.38
2022-10-25T17:37:10.866Z,100403.09
2022-10-25T17:39:38.859Z,100406.72
2022-10-25T17:42:06.915Z,100406.72
2022-10-25T17:44:34.816Z,100414.59
2022-10-25T17:47:03.280Z,100405.88
2022-10-25T17:49:32.755Z,100405.16
2022-10-25T17:52:00.654Z,100408.63
2022-10-25T17:54:28.576Z,100405.16
2022-10-25T17:56:58.669Z,100406.25
2022-10-25T17:59:27.905Z,100404.47
2022-10-25T18:01:56.077Z,100408.88
2022-10-25T18:04:24.662Z,100411.63
2022-10-25T18:06:54.072Z,100415.25
2022-10-25T18:09:21.953Z,100407.38
2022-10-25T18:11:50.039Z,100416.19
2022-10-25T18:14:17.994Z,100412.88
2022-10-25T18:16:48.952Z,100414.78
2022-10-25T18:19:19.862Z,100420.03
2022-10-25T18:21:47.694Z,100424.56
2022-10-25T18:24:17.141Z,100423.75
2022-10-25T18:26:45.041Z,100412.56
2022-10-25T18:29:13.264Z,100422.22
2022-10-25T18:31:41.120Z,100421.53
2022-10-25T18:34:09.018Z,100427.97
2022-10-25T18:36:37.088Z,100422.97
2022-10-25T18:39:05.315Z,100428.53
2022-10-25T18:41:36.002Z,100422.81
2022-10-25T18:44:04.155Z,100426.53
2022-10-25T18:46:32.820Z,100430.22
2022-10-25T18:49:01.023Z,100431.19
2022-10-25T18:51:30.021Z,100431.31
2022-10-25T18:53:59.126Z,100426.34
2022-10-25T18:56:27.619Z,100430.06
2022-10-25T18:58:58.963Z,100431.97
2022-10-25T19:01:32.967Z,100427.69
2022-10-25T19:04:02.158Z,100432.22
2022-10-25T19:06:30.620Z,100432.34
2022-10-25T19:08:58.761Z,100428.88
2022-10-25T19:11:26.698Z,100429.25
2022-10-25T19:13:57.264Z,100425.81
2022-10-25T19:16:25.371Z,100434.63
2022-10-25T19:18:53.528Z,100427.84
2022-10-25T19:21:21.638Z,100424.53
2022-10-25T19:23:49.883Z,100432.50
2022-10-25T19:26:19.532Z,100422.16
2022-10-25T19:28:48.007Z,100424.22
2022-10-25T19:31:18.978Z,100424.34
2022-10-25T19:33:48.401Z,100421.84
2022-10-25T19:36:16.794Z,100424.72
2022-10-25T19:38:46.135Z,100431.88
2022-10-25T19:41:17.333Z,100427.56
2022-10-25T19:43:45.710Z,100432.81
2022-10-25T19:46:14.507Z,100434.72
2022-10-25T19:48:44.195Z,100430.44
2022-10-25T19:51:14.169Z,100439.13
2022-10-25T19:53:42.284Z,100447.13
2022-10-25T19:56:12.355Z,100447.38
2022-10-25T19:58:40.640Z,100433.44
2022-10-25T20:01:10.620Z,100447.63
2022-10-25T20:03:39.815Z,100443.19
2022-10-25T20:06:11.216Z,100446.91
2022-10-25T20:08:41.411Z,100449.53
2022-10-25T20:11:11.311Z,100454.91
2022-10-25T20:13:39.490Z,100453.13
2022-10-25T20:16:08.512Z,100448.81
2022-10-25T20:18:38.536Z,100450.88
2022-10-25T20:21:11.304Z,100456.13
2022-10-25T20:23:40.559Z,100449.19
2022-10-25T20:26:13.407Z,100453.63
2022-10-25T20:28:41.662Z,100456.25
2022-10-25T20:31:10.151Z,100457.16
2022-10-25T20:33:38.536Z,100451.94
2022-10-25T20:36:09.015Z,100461.47
2022-10-25T20:38:38.376Z,100465.66
2022-10-25T20:41:08.924Z,100460.28
2022-10-25T20:43:37.920Z,100469.00
2022-10-25T20:46:09.802Z,100464.59
2022-10-25T20:48:37.711Z,100460.28
2022-10-25T20:51:07.829Z,100466.38
2022-10-25T20:53:36.426Z,100462.59
2022-10-25T20:56:06.532Z,100464.13
2022-10-25T20:58:35.673Z,100467.72
2022-10-25T21:01:03.934Z,100468.50
2022-10-25T21:03:33.413Z,100465.09
2022-10-25T21:06:03.608Z,100477.34
2022-10-25T21:08:31.869Z,100482.72
2022-10-25T21:11:01.267Z,100478.44
2022-10-25T21:13:32.627Z,100483.81
2022-10-25T21:16:05.443Z,100481.31
2022-10-25T21:18:33.354Z,100480.34
2022-10-25T21:21:02.773Z,100483.69
2022-10-25T21:23:31.177Z,100488.19
2022-10-25T21:25:59.768Z,100495.09
2022-10-25T21:28:27.817Z,100487.34
2022-10-25T21:31:02.013Z,100495.34
2022-10-25T21:33:30.227Z,100493.56
2022-10-25T21:36:03.733Z,100501.41
2022-10-25T21:38:31.913Z,100499.66
2022-10-25T21:41:07.465Z,100501.53
2022-10-25T21:43:35.984Z,100501.53
2022-10-25T21:46:07.723Z,100504.16
2022-10-25T21:48:36.515Z,100510.25
2022-10-25T21:51:05.138Z,100518.13
2022-10-25T21:53:33.419Z,100508.56
2022-10-25T21:56:06.659Z,100515.63
2022-10-25T21:58:34.615Z,100515.63
2022-10-25T22:01:02.611Z,100513.81
2022-10-25T22:03:32.436Z,100519.03
2022-10-25T22:06:00.310Z,100520.00
2022-10-25T22:08:28.322Z,100513.13
2022-10-25T22:13:33.431Z,100522.75
2022-10-25T22:16:03.367Z,100524.41
2022-10-25T22:18:33.448Z,100531.47
2022-10-25T22:21:03.612Z,100523.72
2022-10-25T22:23:32.839Z,100530.72
2022-10-25T22:26:02.887Z,100533.34
2022-10-25T22:28:32.546Z,100536.22
2022-10-25T22:31:06.182Z,100532.66
2022-10-25T22:33:36.529Z,100531.94
2022-10-25T22:36:06.108Z,100534.69
2022-10-25T22:38:34.721Z,100532.06
2022-10-25T22:41:04.442Z,100528.59
2022-10-25T22:43:34.795Z,100536.44
2022-10-25T22:46:03.534Z,100532.19
2022-10-25T22:48:32.093Z,100535.63
2022-10-25T22:51:04.995Z,100537.41
2022-10-25T22:53:33.307Z,100533.25
2022-10-25T22:56:06.515Z,100533.25
2022-10-25T22:58:35.880Z,100538.50
2022-10-25T23:01:08.332Z,100532.41
2022-10-25T23:03:37.318Z,100547.06
2022-10-25T23:06:10.495Z,100546.38
2022-10-25T23:08:38.458Z,100545.50
2022-10-25T23:11:09.172Z,100536.81
2022-10-25T23:13:39.164Z,100548.25
2022-10-25T23:16:08.345Z,100545.63
2022-10-25T23:18:36.694Z,100548.25
2022-10-25T23:21:09.984Z,100554.34
2022-10-25T23:23:39.704Z,100560.50
2022-10-25T23:26:08.736Z,100545.75
2022-10-25T23:28:36.712Z,100553.63
2022-10-25T23:31:08.735Z,100558.84
2022-10-25T23:33:36.837Z,100568.38
2022-10-25T23:36:08.742Z,100564.22
2022-10-25T23:38:36.844Z,100568.59
2022-10-25T23:41:05.434Z,100570.41
2022-10-25T23:43:34.002Z,100573.97
2022-10-25T23:46:02.571Z,100573.03
2022-10-25T23:48:30.932Z,100571.34
2022-10-25T23:53:34.610Z,100574.94
2022-10-25T23:56:03.321Z,100582.91
2022-10-25T23:58:31.701Z,100577.66
